Latest Weather Observations for Noona

IDN60801

Issued at 5:22 am EST Wednesday 18 July 2018 (issued every 10 minutes, with the page automatically refreshed every 10 minutes)

About weather observations | Map of weather stations | Latest weather observations for NSW | Other Formats
Station Details ID: 048250 Name: NOONA AWS Lat: -31.73 Lon: 144.93 Height: 179.0 m
Data from the previous 72 hours. | See also: Recent months at Noona
Date/Time
EST
Temp
°C
App
Temp
°C
Dew
Point
°C
Rel
Hum
%
Delta-T
°C
Wind Press
QNH
hPa
Press
MSL
hPa
Rain since
9am
mm
Dir  Spd
km/h
Gust
km/h
Spd
kts
Gust
kts
18/05:00am 8.3 - 1.7 63 2.7 - - - - - - - 0.0
18/04:30am 8.7 - 1.6 61 3.0 - - - - - - - 0.0
18/04:00am 9.4 - 1.8 59 3.2 - - - - - - - 0.0
18/03:30am 9.8 - 1.9 58 3.3 - - - - - - - 0.0
18/03:00am 9.9 - 1.8 57 3.4 - - - - - - - 0.0
18/02:30am 10.4 - 1.8 55 3.7 - - - - - - - 0.0
18/02:00am 11.1 - 1.9 53 3.9 - - - - - - - 0.0
18/01:30am 11.4 - 1.6 51 4.2 - - - - - - - 0.0
18/01:00am 11.9 - 1.5 49 4.5 - - - - - - - 0.0
18/12:30am 12.6 - 1.9 48 4.7 - - - - - - - 0.0
18/12:00am 12.9 - 1.6 46 4.9 - - - - - - - 0.0
 
Date/Time
EST
Temp
°C
App
Temp
°C
Dew
Point
°C
Rel
Hum
%
Delta-T
°C
Wind Press
QNH
hPa
Press
MSL
hPa
Rain since
9am
mm
Dir  Spd
km/h
Gust
km/h
Spd
kts
Gust
kts
17/11:30pm 11.3 - 1.3 50 4.2 - - - - - - - 0.0
17/11:00pm 13.5 - 1.5 44 5.2 - - - - - - - 0.0
17/10:30pm 14.1 - 1.7 43 5.4 - - - - - - - 0.0
17/10:00pm 14.7 - 1.9 42 5.7 - - - - - - - 0.0
17/09:30pm 14.6 - 1.8 42 5.7 - - - - - - - 0.0
17/09:00pm 15.5 - 1.6 39 6.2 - - - - - - - 0.0
17/08:30pm 16.2 - 1.5 37 6.5 - - - - - - - 0.0
17/08:00pm 16.8 - 1.7 36 6.8 - - - - - - - 0.0
17/07:30pm 16.5 - 1.8 37 6.6 - - - - - - - 0.0
17/07:00pm 16.9 - 1.8 36 6.8 - - - - - - - 0.0
17/06:30pm 17.5 - 1.5 34 7.2 - - - - - - - 0.0
17/06:00pm 18.7 - 1.7 32 7.8 - - - - - - - 0.0
17/05:30pm 19.5 - 1.9 31 8.1 - - - - - - - 0.0
17/05:00pm 20.2 - 2.1 30 8.4 - - - - - - - 0.0
17/04:30pm 20.9 - 1.7 28 8.9 - - - - - - - 0.0
17/04:00pm 21.3 - 2.1 28 9.0 - - - - - - - 0.0
17/03:30pm 21.0 - 1.3 27 9.1 - - - - - - - 0.0
17/03:00pm 21.0 - 1.3 27 9.1 - - - - - - - 0.0
17/02:30pm 20.2 - 1.6 29 8.6 - - - - - - - 0.0
17/02:00pm 20.0 - 1.0 28 8.6 - - - - - - - 0.0
17/01:30pm 19.1 - 0.2 28 8.4 - - - - - - - 0.0
17/01:00pm 19.0 - 0.1 28 8.4 - - - - - - - 0.0
17/12:30pm 18.2 - 0.4 30 7.9 - - - - - - - 0.0
17/12:00pm 18.2 - -0.6 28 8.2 - - - - - - - 0.0
17/11:30am 17.1 - -2.0 27 8.0 - - - - - - - 0.0
17/11:00am 15.7 - -4.2 25 7.8 - - - - - - - 0.0
17/10:30am 14.6 - -6.8 22 7.8 - - - - - - - 0.0
17/10:00am 13.4 - -7.9 22 7.5 - - - - - - - 0.0
17/09:30am 12.8 - -8.4 22 7.3 - - - - - - - 0.0
17/09:00am 12.5 - -8.0 23 7.1 - - - - - - - 0.0
17/08:30am 11.3 - -8.0 25 6.6 - - - - - - - 0.0
17/08:00am 10.4 - -7.8 27 6.2 - - - - - - - 0.0
17/07:30am 10.1 - -8.0 27 6.1 - - - - - - - 0.0
17/07:00am 9.8 - -7.8 28 5.9 - - - - - - - 0.0
17/06:30am 10.2 - -7.5 28 6.0 - - - - - - - 0.0
17/06:00am 10.4 - -7.3 28 6.1 - - - - - - - 0.0
17/05:30am 9.9 - -7.3 29 5.9 - - - - - - - 0.0
17/05:00am 10.5 - -7.2 28 6.1 - - - - - - - 0.0
17/04:30am 10.3 - -6.9 29 6.0 - - - - - - - 0.0
17/04:00am 9.8 - -6.9 30 5.7 - - - - - - - 0.0
17/03:30am 10.0 - -7.2 29 5.9 - - - - - - - 0.0
17/03:00am 9.7 - -7.4 29 5.8 - - - - - - - 0.0
17/02:30am 10.8 - -7.4 27 6.3 - - - - - - - 0.0
17/02:00am 10.6 - -7.6 27 6.2 - - - - - - - 0.0
17/01:30am 11.3 - -7.5 26 6.5 - - - - - - - 0.0
17/01:00am 10.9 - -7.3 27 6.3 - - - - - - - 0.0
17/12:30am 11.4 - -7.4 26 6.5 - - - - - - - 0.0
17/12:00am 11.3 - -7.5 26 6.5 - - - - - - - 0.0
 
Date/Time
EST
Temp
°C
App
Temp
°C
Dew
Point
°C
Rel
Hum
%
Delta-T
°C
Wind Press
QNH
hPa
Press
MSL
hPa
Rain since
9am
mm
Dir  Spd
km/h
Gust
km/h
Spd
kts
Gust
kts
16/11:30pm 11.7 - -7.6 25 6.7 - - - - - - - 0.0
16/11:00pm 11.5 - -7.8 25 6.6 - - - - - - - 0.0
16/10:30pm 11.9 - -8.0 24 6.9 - - - - - - - 0.0
16/10:00pm 12.3 - -8.2 23 7.1 - - - - - - - 0.0
16/09:30pm 13.2 - -8.0 22 7.4 - - - - - - - 0.0
16/09:00pm 13.4 - -7.9 22 7.5 - - - - - - - 0.0
16/08:30pm 13.4 - -7.9 22 7.5 - - - - - - - 0.0
16/08:00pm 13.7 - -7.6 22 7.6 - - - - - - - 0.0
16/07:30pm 13.9 - -7.4 22 7.6 - - - - - - - 0.0
16/07:00pm 14.1 - -7.3 22 7.7 - - - - - - - 0.0
16/06:30pm 14.7 - -7.4 21 8.0 - - - - - - - 0.0
16/06:00pm 15.8 - -7.7 19 8.6 - - - - - - - 0.0
16/05:30pm 16.7 - -8.4 17 9.1 - - - - - - - 0.0
16/05:00pm 17.9 - -8.2 16 9.6 - - - - - - - 0.0
16/04:30pm 18.4 - -8.7 15 10.0 - - - - - - - 0.0
16/04:00pm 18.5 - -7.0 17 9.7 - - - - - - - 0.0
16/03:30pm 18.1 - -6.6 18 9.4 - - - - - - - 0.0
16/03:00pm 18.1 - -6.6 18 9.4 - - - - - - - 0.0
16/02:30pm 17.9 - -6.0 19 9.2 - - - - - - - 0.0
16/02:00pm 17.3 - -5.2 21 8.8 - - - - - - - 0.0
16/01:30pm 17.2 - -5.3 21 8.8 - - - - - - - 0.0
16/01:00pm 16.4 - -4.8 23 8.3 - - - - - - - 0.0
16/12:30pm 16.2 - -4.9 23 8.2 - - - - - - - 0.0
16/12:00pm 15.0 - -5.4 24 7.7 - - - - - - - 0.0
16/11:30am 14.5 - -4.7 26 7.4 - - - - - - - 0.0
16/11:00am 14.0 - -4.2 28 7.0 - - - - - - - 0.0
16/10:30am 13.2 - -4.9 28 6.8 - - - - - - - 0.0
16/10:00am 12.1 - -4.1 32 6.1 - - - - - - - 0.0
16/09:30am 11.2 - -4.5 33 5.8 - - - - - - - 0.0
16/09:00am 9.5 - -3.4 40 4.8 - - - - - - - 0.0
16/08:30am 7.0 - -2.7 50 3.6 - - - - - - - 0.0
16/08:00am 6.6 - -3.1 50 3.5 - - - - - - - 0.0
16/07:30am 6.2 - -2.9 52 3.3 - - - - - - - 0.0
16/07:00am 4.5 - -2.8 59 2.6 - - - - - - - 0.0
16/06:30am 1.7 - -4.6 63 2.2 - - - - - - - 0.0
16/06:00am 4.4 - -3.8 55 2.8 - - - - - - - 0.0
16/05:30am 4.3 - -3.7 56 2.8 - - - - - - - 0.0
16/05:00am 4.7 - -3.6 55 2.9 - - - - - - - 0.0
16/04:30am 4.6 - -3.6 55 2.9 - - - - - - - 0.0
16/04:00am 3.7 - -4.0 57 2.6 - - - - - - - 0.0
16/03:30am 1.8 - -4.5 63 2.2 - - - - - - - 0.0
16/03:00am 0.2 - -6.4 61 2.1 - - - - - - - 0.0
16/02:30am 5.0 - -4.3 51 3.2 - - - - - - - 0.0
16/02:00am 5.3 - -4.3 50 3.3 - - - - - - - 0.0
16/01:30am 5.7 - -4.4 48 3.5 - - - - - - - 0.0
16/01:00am 6.6 - -3.9 47 3.7 - - - - - - - 0.0
16/12:30am 6.5 - -4.0 47 3.7 - - - - - - - 0.0
16/12:00am 6.9 - -4.2 45 3.9 - - - - - - - 0.0
 
Date/Time
EST
Temp
°C
App
Temp
°C
Dew
Point
°C
Rel
Hum
%
Delta-T
°C
Wind Press
QNH
hPa
Press
MSL
hPa
Rain since
9am
mm
Dir  Spd
km/h
Gust
km/h
Spd
kts
Gust
kts
15/11:30pm 7.4 - -4.3 43 4.2 - - - - - - - 0.0
15/11:00pm 8.2 - -3.9 42 4.4 - - - - - - - 0.0
15/10:30pm 7.6 - -4.2 43 4.2 - - - - - - - 0.0
15/10:00pm 6.5 - -4.9 44 3.9 - - - - - - - 0.0
15/09:30pm 7.6 - -4.5 42 4.3 - - - - - - - 0.0
15/09:00pm 8.7 - -4.5 39 4.7 - - - - - - - 0.0
15/08:30pm 8.9 - -4.6 38 4.9 - - - - - - - 0.0
15/08:00pm 9.4 - -4.9 36 5.1 - - - - - - - 0.0
15/07:30pm 10.3 - -4.9 34 5.5 - - - - - - - 0.0
15/07:00pm 10.9 - -5.1 32 5.8 - - - - - - - 0.0
15/06:30pm 11.1 - -4.9 32 5.9 - - - - - - - 0.0
15/06:00pm 12.0 - -5.0 30 6.3 - - - - - - - 0.0
15/05:30pm 12.9 - -5.6 27 6.8 - - - - - - - 0.0
15/05:00pm 14.0 - -6.2 24 7.4 - - - - - - - 0.0
15/04:30pm 14.6 - -6.3 23 7.7 - - - - - - - 0.0
15/04:00pm 14.7 - -5.6 24 7.6 - - - - - - - 0.0
15/03:30pm 14.7 - -5.1 25 7.5 - - - - - - - 0.0
15/03:00pm 15.2 - -5.2 24 7.8 - - - - - - - 0.0
15/02:30pm 14.7 - -4.6 26 7.4 - - - - - - - 0.0
15/02:00pm 14.2 - -5.0 26 7.3 - - - - - - - 0.0
15/01:30pm 14.1 - -4.1 28 7.0 - - - - - - - 0.0
15/01:00pm 13.6 - -3.2 31 6.6 - - - - - - - 0.0
15/12:30pm 13.1 - -2.4 34 6.2 - - - - - - - 0.0
15/12:00pm 12.9 - -1.8 36 5.9 - - - - - - - 0.0
15/11:30am 11.9 - -1.9 38 5.5 - - - - - - - 0.0
15/11:00am 11.2 - -0.9 43 4.9 - - - - - - - 0.0
15/10:30am 11.3 - 0.4 47 4.5 - - - - - - - 0.0
15/10:00am 9.9 - 0.5 52 3.9 - - - - - - - 0.0
15/09:30am 8.0 - 0.0 57 3.2 - - - - - - - 0.0
15/09:00am 6.0 - -0.3 64 2.4 - - - - - - - 0.0
15/08:30am 3.9 - -0.9 71 1.8 - - - - - - - 0.0
15/08:00am 1.4 - -1.7 80 1.1 - - - - - - - 0.0
15/07:30am -0.4 - -2.4 86 0.7 - - - - - - - 0.0
15/07:00am -0.3 - -2.7 84 0.8 - - - - - - - 0.0
15/06:30am 0.5 - -1.9 84 0.9 - - - - - - - 0.0
15/06:00am -0.4 - -2.8 84 0.8 - - - - - - - 0.0
15/05:30am 0.3 - -2.2 83 0.9 - - - - - - - 0.0

Other Formats:

Comma delimited format used in spreadsheet applications
http://www.bom.gov.au/fwo/IDN60801/IDN60801.94798.axf

JavaScript Object Notation format (JSON) in row-major order
http://www.bom.gov.au/fwo/IDN60801/IDN60801.94798.json